Time;durP1;ratioP1;P1;durP2;ratioP2;P2;SDS_P1;SDS_P2;PMS_P1;PMS_P2;Temp;Humidity;BMP_temperature;BMP_pressure;BME280_temperature;BME280_humidity;BME280_pressure;Samples;Min_cycle;Max_cycle;Signal;HPM_P1;HPM_P2
2023/07/27 00:00:27;;;;;;;5.95;2.42;;;15.80;72.30;;;17.31;51.97;97488.31;5012661;28;20050;-50
2023/07/27 00:02:55;;;;;;;4.55;2.47;;;15.80;72.10;;;17.24;52.01;97490.22;5012560;28;20057;-47
2023/07/27 00:05:22;;;;;;;5.38;2.78;;;15.70;72.40;;;17.20;52.15;97494.34;5012381;28;20045;-50
2023/07/27 00:07:50;;;;;;;2.72;2.25;;;15.60;72.50;;;17.20;52.19;97486.28;5011743;28;20049;-50
2023/07/27 00:10:20;;;;;;;2.55;2.25;;;15.70;72.40;;;17.20;52.39;97491.66;5012514;28;20398;-48
2023/07/27 00:12:47;;;;;;;3.53;2.55;;;15.70;72.50;;;17.17;52.40;97484.00;5012289;28;20057;-47
2023/07/27 00:15:15;;;;;;;5.10;2.72;;;15.60;72.80;;;17.17;52.45;97476.75;5012391;28;20053;-48
2023/07/27 00:17:43;;;;;;;4.47;2.35;;;15.60;73.10;;;17.19;52.53;97474.69;5010729;28;20042;-49
2023/07/27 00:20:11;;;;;;;4.32;2.50;;;15.60;73.00;;;17.18;52.39;97475.72;5012288;28;20046;-47
2023/07/27 00:22:39;;;;;;;2.92;2.33;;;15.60;72.90;;;17.15;52.58;97467.25;5012035;28;20049;-50
2023/07/27 00:25:06;;;;;;;5.00;2.80;;;15.60;73.00;;;17.17;52.41;97467.84;5001714;28;20046;-49
2023/07/27 00:27:34;;;;;;;3.22;2.22;;;15.60;72.90;;;17.20;52.61;97470.16;5011852;28;20050;-47
2023/07/27 00:30:02;;;;;;;4.13;2.25;;;15.70;72.60;;;17.22;52.29;97465.38;5027101;28;20149;-46
2023/07/27 00:32:30;;;;;;;3.35;2.33;;;15.70;72.50;;;17.20;52.43;97462.06;5011053;28;20042;-49
2023/07/27 00:34:58;;;;;;;3.17;2.30;;;15.70;72.70;;;17.17;52.49;97465.16;5012104;28;20282;-47
2023/07/27 00:37:25;;;;;;;2.72;2.40;;;15.60;72.60;;;17.18;52.37;97462.28;5010021;28;20046;-50
2023/07/27 00:39:53;;;;;;;3.80;2.45;;;15.70;72.40;;;17.19;52.34;97472.00;5018183;28;20049;-50
2023/07/27 00:42:21;;;;;;;3.80;2.45;;;15.70;72.30;;;17.12;52.57;97468.50;5011974;28;20046;-50
2023/07/27 00:44:48;;;;;;;4.43;2.53;;;15.60;72.40;;;17.13;52.57;97465.56;5026888;28;20061;-48
2023/07/27 00:47:16;;;;;;;3.72;2.10;;;15.70;72.80;;;17.09;52.44;97463.50;5009681;28;20057;-51
2023/07/27 00:49:44;;;;;;;3.72;2.55;;;15.60;73.00;;;17.07;52.74;97462.91;5010622;28;20042;-50
2023/07/27 00:52:11;;;;;;;5.25;2.70;;;15.50;73.20;;;17.05;52.67;97459.59;5011877;28;20049;-50
2023/07/27 00:54:39;;;;;;;2.92;2.17;;;15.50;73.30;;;17.00;52.89;97451.31;5010690;28;20053;-49
2023/07/27 00:57:07;;;;;;;2.90;2.35;;;15.50;73.70;;;17.02;52.94;97441.16;5009862;28;20049;-51
2023/07/27 00:59:35;;;;;;;3.90;2.28;;;15.40;73.80;;;17.01;52.98;97448.41;5010347;28;20049;-53
2023/07/27 01:02:03;;;;;;;5.20;2.40;;;15.40;74.20;;;17.00;53.07;97438.72;5018714;28;20391;-50
2023/07/27 01:04:31;;;;;;;3.92;2.20;;;15.40;74.20;;;16.94;53.00;97431.44;5026785;28;20057;-50
2023/07/27 01:06:59;;;;;;;5.50;2.45;;;15.30;74.70;;;16.88;53.49;97433.09;5010281;28;20054;-48
2023/07/27 01:09:26;;;;;;;5.07;2.28;;;15.30;75.00;;;16.90;53.27;97427.50;5009514;28;20049;-49
2023/07/27 01:12:31;;;;;;;3.88;2.58;;;15.30;75.10;;;16.85;53.41;97428.16;5011533;28;20053;-52
2023/07/27 01:15:14;;;;;;;4.20;2.50;;;15.30;74.80;;;16.94;53.14;97423.38;5000060;28;20050;-51
2023/07/27 01:17:59;;;;;;;5.72;2.60;;;15.40;74.40;;;16.91;53.40;97421.94;4993701;28;20042;-50
2023/07/27 01:20:46;;;;;;;4.22;2.08;;;15.40;74.10;;;16.84;53.35;97410.34;5020725;28;20046;-47
2023/07/27 01:23:35;;;;;;;4.78;2.97;;;15.30;74.60;;;16.77;53.81;97414.88;5003809;28;20049;-50
2023/07/27 01:26:14;;;;;;;3.50;2.03;;;15.20;75.10;;;16.71;53.78;97408.47;5010040;28;20042;-46
2023/07/27 01:29:02;;;;;;;6.20;2.35;;;15.20;75.20;;;16.68;53.80;97410.75;5009770;28;20065;-48
2023/07/27 01:31:43;;;;;;;4.60;2.58;;;15.20;75.60;;;16.68;53.61;97408.06;5006015;28;20041;-51
2023/07/27 01:34:26;;;;;;;3.30;2.50;;;15.10;75.70;;;16.70;53.65;97395.22;4994316;28;20410;-50
2023/07/27 01:37:00;;;;;;;11.50;3.10;;;15.10;75.60;;;16.68;53.80;97400.81;5009958;28;20046;-48
2023/07/27 01:39:33;;;;;;;3.58;2.35;;;15.10;75.40;;;16.69;53.76;97401.63;4994066;28;20050;-49
2023/07/27 01:42:03;;;;;;;3.72;2.80;;;15.20;75.40;;;16.65;53.66;97403.06;5010207;28;20441;-52
2023/07/27 01:44:33;;;;;;;3.38;2.35;;;15.10;75.80;;;16.65;53.77;97395.88;5011523;28;20045;-53
2023/07/27 01:47:03;;;;;;;2.88;2.50;;;15.10;75.50;;;16.66;53.74;97397.50;5010960;28;20402;-52
2023/07/27 01:49:34;;;;;;;3.85;2.40;;;15.10;75.60;;;16.65;53.49;97386.94;4993731;28;20050;-48
2023/07/27 01:52:03;;;;;;;2.90;2.33;;;15.10;75.70;;;16.58;54.03;97386.97;4996275;28;20057;-50
2023/07/27 01:54:32;;;;;;;3.08;2.47;;;15.00;76.30;;;16.42;54.44;97385.50;5013577;28;20505;-51
2023/07/27 01:57:01;;;;;;;5.57;2.33;;;14.80;77.30;;;16.41;54.01;97381.16;5014845;28;20049;-48
2023/07/27 01:59:30;;;;;;;2.70;2.15;;;14.80;77.70;;;16.33;54.74;97381.34;5013933;28;20182;-51
2023/07/27 02:01:58;;;;;;;3.00;2.33;;;14.70;78.10;;;16.33;54.68;97378.66;4997692;28;20524;-48
2023/07/27 02:04:25;;;;;;;4.05;2.63;;;14.60;78.30;;;16.32;54.57;97368.94;5013942;28;20540;-51
2023/07/27 02:06:54;;;;;;;3.80;2.50;;;14.70;78.60;;;16.26;54.95;97372.44;5013169;28;20038;-48
2023/07/27 02:09:21;;;;;;;3.00;2.50;;;14.60;78.80;;;16.28;54.59;97371.19;5013230;28;20050;-49
2023/07/27 02:11:58;;;;;;;3.65;2.38;;;14.60;78.80;;;16.28;54.95;97370.38;5013497;28;20042;-49
2023/07/27 02:14:43;;;;;;;3.78;2.40;;;14.60;78.70;;;16.24;54.87;97366.44;4997782;28;20048;-51
2023/07/27 02:17:23;;;;;;;3.53;2.42;;;14.60;78.90;;;16.23;54.93;97362.94;5012986;28;20038;-50
2023/07/27 02:19:56;;;;;;;3.65;2.30;;;14.60;79.10;;;16.27;54.80;97363.38;4998045;28;20536;-50
2023/07/27 02:22:26;;;;;;;3.28;2.10;;;14.60;78.90;;;16.27;54.75;97366.06;4997305;28;20054;-48
2023/07/27 02:24:54;;;;;;;3.00;2.40;;;14.70;79.50;;;16.28;54.74;97360.44;5029542;28;20046;-47
2023/07/27 02:27:22;;;;;;;2.85;2.20;;;14.70;78.40;;;16.25;54.68;97363.56;5012763;28;20064;-50
2023/07/27 02:29:50;;;;;;;3.42;2.55;;;14.80;78.00;;;16.28;54.82;97363.13;5028882;28;20060;-49
2023/07/27 02:32:19;;;;;;;5.07;2.80;;;14.80;77.60;;;16.32;54.63;97350.97;5014385;28;20046;-51
2023/07/27 02:34:46;;;;;;;7.22;2.58;;;14.90;77.00;;;16.37;54.58;97352.22;5014330;28;20413;-46
2023/07/27 02:37:15;;;;;;;4.07;2.15;;;14.90;76.80;;;16.40;54.46;97343.72;5004603;28;20524;-50
2023/07/27 02:39:43;;;;;;;5.65;2.53;;;14.90;76.50;;;16.45;54.23;97339.41;5013194;28;20049;-51
2023/07/27 02:42:10;;;;;;;4.25;2.63;;;15.00;75.90;;;16.39;54.44;97340.22;5013000;28;20048;-50
2023/07/27 02:44:38;;;;;;;2.88;2.10;;;14.90;76.60;;;16.41;54.34;97338.16;5029122;28;20042;-50
2023/07/27 02:47:06;;;;;;;3.42;2.08;;;15.00;76.30;;;16.46;54.47;97329.47;5014098;28;20050;-51
2023/07/27 02:49:33;;;;;;;3.00;2.42;;;15.00;76.20;;;16.50;54.33;97333.44;5013013;28;20042;-47
2023/07/27 02:52:02;;;;;;;3.78;2.35;;;15.00;75.80;;;16.56;54.18;97332.59;5029270;28;20044;-50
2023/07/27 02:54:29;;;;;;;3.00;2.00;;;15.10;75.40;;;16.56;54.05;97327.22;5012628;28;20053;-51
2023/07/27 02:56:58;;;;;;;3.08;2.15;;;15.00;75.40;;;16.54;53.92;97329.28;5012137;28;20532;-48
2023/07/27 02:59:32;;;;;;;6.22;2.70;;;15.00;75.50;;;16.56;54.04;97337.97;5012892;28;20395;-48
2023/07/27 03:02:00;;;;;;;6.70;3.67;;;15.00;75.60;;;16.59;53.84;97325.97;5028797;28;20051;-50
2023/07/27 03:04:36;;;;;;;3.95;2.40;;;15.10;75.60;;;16.57;53.78;97333.41;5012342;28;20042;-49
2023/07/27 03:07:07;;;;;;;3.70;2.20;;;15.10;75.50;;;16.58;53.72;97335.09;5012042;28;20046;-49
2023/07/27 03:09:35;;;;;;;4.65;2.42;;;15.10;75.30;;;16.62;53.68;97339.81;5012539;28;20394;-48
2023/07/27 03:12:04;;;;;;;3.45;2.47;;;15.10;75.10;;;16.65;53.63;97335.88;5028869;28;20052;-48
2023/07/27 03:14:32;;;;;;;2.50;1.92;;;15.20;74.80;;;16.69;53.66;97337.13;5012376;28;20040;-51
2023/07/27 03:16:59;;;;;;;3.20;2.25;;;15.20;74.40;;;16.72;53.47;97337.53;5012123;28;20061;-49
2023/07/27 03:19:27;;;;;;;4.70;2.85;;;15.20;74.10;;;16.74;53.32;97334.66;5013191;28;20041;-47
2023/07/27 03:21:54;;;;;;;2.50;1.98;;;15.20;74.00;;;16.73;53.28;97338.38;5028887;28;20053;-51
2023/07/27 03:24:22;;;;;;;3.03;2.20;;;15.20;73.70;;;16.72;53.27;97340.22;5011743;28;20038;-47
2023/07/27 03:26:50;;;;;;;2.17;1.85;;;15.20;73.80;;;16.73;53.06;97333.81;5009472;28;20053;-46
2023/07/27 03:29:18;;;;;;;2.70;2.20;;;15.20;73.40;;;16.77;52.91;97333.41;5004138;28;20054;-50
2023/07/27 03:31:45;;;;;;;2.83;2.40;;;15.30;73.40;;;16.79;52.90;97334.00;5012162;28;20061;-51
2023/07/27 03:34:13;;;;;;;3.50;2.20;;;15.30;73.20;;;16.82;52.90;97330.94;5013193;28;20525;-48
2023/07/27 03:36:41;;;;;;;2.72;2.20;;;15.40;72.90;;;16.85;52.80;97317.94;5013130;28;20048;-47
2023/07/27 03:39:09;;;;;;;3.67;2.25;;;15.40;72.50;;;16.85;52.51;97322.47;5012541;28;20046;-49
2023/07/27 03:41:37;;;;;;;3.17;2.42;;;15.30;72.60;;;16.81;52.59;97315.81;5012044;28;20363;-49
2023/07/27 03:44:09;;;;;;;4.35;2.45;;;15.20;72.30;;;16.81;52.59;97313.13;4995277;28;20049;-48
2023/07/27 03:46:36;;;;;;;5.65;2.45;;;15.20;72.80;;;16.79;52.30;97302.59;5011605;28;20042;-51
2023/07/27 03:49:04;;;;;;;2.92;2.10;;;15.20;72.80;;;16.83;52.54;97297.66;5011012;28;20053;-50
2023/07/27 03:51:32;;;;;;;6.53;2.13;;;15.30;72.60;;;16.81;52.45;97302.38;5011567;28;20046;-49
2023/07/27 03:54:00;;;;;;;3.72;1.88;;;15.20;72.50;;;16.81;52.46;97297.84;5011405;28;20517;-51
2023/07/27 03:56:36;;;;;;;2.45;1.95;;;15.20;72.20;;;16.77;52.36;97293.91;5011658;28;20056;-53
2023/07/27 03:59:05;;;;;;;3.30;2.35;;;15.20;72.50;;;16.75;52.51;97285.25;5010834;28;20068;-50
2023/07/27 04:01:33;;;;;;;3.63;2.00;;;15.20;72.50;;;16.77;52.66;97291.22;5011622;28;20038;-50
2023/07/27 04:04:00;;;;;;;4.07;2.22;;;15.20;72.30;;;16.73;52.45;97285.44;5010788;28;20413;-49
2023/07/27 04:06:29;;;;;;;3.28;2.05;;;15.20;72.50;;;16.80;52.51;97284.59;5011754;28;20042;-47
2023/07/27 04:08:58;;;;;;;3.78;2.45;;;15.20;72.60;;;16.72;52.42;97285.66;5011900;28;20038;-51
2023/07/27 04:11:25;;;;;;;2.35;2.00;;;15.20;72.40;;;16.71;52.65;97286.66;5012543;28;20046;-51
2023/07/27 04:13:53;;;;;;;2.45;1.95;;;15.20;72.80;;;16.71;52.62;97284.84;5010306;28;20053;-48
2023/07/27 04:16:21;;;;;;;3.15;2.03;;;15.20;72.60;;;16.76;52.46;97280.69;5019608;28;20042;-49
2023/07/27 04:18:48;;;;;;;3.45;2.80;;;15.20;72.70;;;16.78;52.69;97275.94;5011811;28;20040;-51
2023/07/27 04:21:16;;;;;;;2.83;2.00;;;15.20;73.00;;;16.80;52.53;97276.53;5027717;28;20042;-50
2023/07/27 04:23:44;;;;;;;6.85;2.90;;;15.20;73.10;;;16.87;52.43;97277.41;5010565;28;20049;-53
2023/07/27 04:26:12;;;;;;;3.80;2.15;;;15.40;72.80;;;16.86;52.63;97275.72;5010997;28;20049;-49
2023/07/27 04:28:39;;;;;;;3.22;2.30;;;15.40;72.50;;;16.88;52.53;97273.66;5010561;28;20050;-51
2023/07/27 04:31:07;;;;;;;4.45;2.30;;;15.40;72.40;;;16.89;52.59;97276.13;5026834;28;20054;-51
2023/07/27 04:33:35;;;;;;;3.65;2.13;;;15.40;72.70;;;16.90;52.59;97275.13;5010855;28;20046;-48
2023/07/27 04:36:03;;;;;;;4.88;2.90;;;15.40;72.70;;;16.85;52.75;97272.22;5012468;28;20061;-51
2023/07/27 04:38:31;;;;;;;3.10;2.10;;;15.30;72.80;;;16.80;52.90;97271.97;5010532;28;20042;-49
2023/07/27 04:40:58;;;;;;;3.13;2.17;;;15.30;73.40;;;16.85;52.74;97277.59;5011951;28;20493;-49
2023/07/27 04:43:26;;;;;;;2.97;2.15;;;15.30;73.40;;;16.88;52.83;97266.41;5019185;28;20042;-49
2023/07/27 04:45:53;;;;;;;3.03;2.17;;;15.40;73.30;;;16.90;52.75;97275.13;5010791;28;20045;-49
2023/07/27 04:48:21;;;;;;;2.78;1.80;;;15.40;72.90;;;16.93;52.74;97268.47;5026889;28;20046;-48
2023/07/27 04:50:49;;;;;;;3.38;2.10;;;15.40;73.00;;;16.93;52.80;97274.69;5011938;28;20056;-46
2023/07/27 04:53:16;;;;;;;4.05;1.92;;;15.50;73.00;;;16.95;52.82;97274.47;5012444;28;20057;-48
2023/07/27 04:55:45;;;;;;;3.90;2.20;;;15.50;72.80;;;16.98;52.98;97270.53;4994102;28;20054;-49
2023/07/27 04:58:13;;;;;;;4.75;2.88;;;15.60;72.70;;;16.99;52.81;97281.06;5010336;28;20061;-49
2023/07/27 05:00:41;;;;;;;3.25;2.03;;;15.60;72.40;;;16.95;52.85;97271.78;5018315;28;20042;-49
2023/07/27 05:03:08;;;;;;;5.47;2.10;;;15.60;72.50;;;17.00;52.84;97268.44;5011773;28;20038;-47
2023/07/27 05:05:43;;;;;;;3.58;2.03;;;15.70;72.30;;;17.01;52.92;97270.94;5011727;28;20034;-49
2023/07/27 05:08:10;;;;;;;2.83;2.03;;;15.70;71.90;;;17.04;52.73;97273.22;5011042;28;20042;-49
2023/07/27 05:10:41;;;;;;;3.95;2.17;;;15.60;72.10;;;17.03;53.00;97271.53;5011608;28;20053;-48
2023/07/27 05:13:08;;;;;;;4.05;2.33;;;15.60;72.40;;;17.04;53.10;97269.66;5011503;28;20417;-48
2023/07/27 05:15:40;;;;;;;3.15;2.22;;;15.70;72.40;;;17.11;52.74;97265.09;5010480;28;20057;-50
2023/07/27 05:18:08;;;;;;;4.05;2.35;;;15.70;72.60;;;17.13;52.88;97265.72;5009724;28;20061;-51
2023/07/27 05:20:35;;;;;;;3.20;2.10;;;15.70;72.40;;;17.17;52.71;97261.56;5011488;28;20045;-49
2023/07/27 05:23:03;;;;;;;4.40;2.05;;;15.80;72.10;;;17.21;52.72;97270.03;5011408;28;20038;-51
2023/07/27 05:25:31;;;;;;;4.75;2.92;;;15.80;72.10;;;17.17;52.68;97269.63;5012826;28;20041;-49
2023/07/27 05:27:58;;;;;;;3.47;2.00;;;15.80;72.30;;;17.20;52.67;97265.72;5015015;28;20046;-51
2023/07/27 05:30:26;;;;;;;4.57;2.40;;;15.80;72.10;;;17.18;52.72;97267.78;5014909;28;20053;-48
2023/07/27 05:32:53;;;;;;;4.25;2.45;;;15.80;72.10;;;17.25;52.66;97264.03;5015465;28;20041;-48
2023/07/27 05:35:21;;;;;;;3.28;2.17;;;15.90;71.90;;;17.31;52.69;97262.34;5015158;28;20057;-50
2023/07/27 05:37:48;;;;;;;3.40;2.35;;;16.00;71.70;;;17.31;52.61;97256.97;5014897;28;20057;-50
2023/07/27 05:40:16;;;;;;;2.40;2.00;;;16.00;71.40;;;17.28;52.69;97257.41;5015143;28;20494;-49
2023/07/27 05:42:44;;;;;;;5.28;2.70;;;16.00;71.40;;;17.31;52.41;97260.50;5015343;28;20536;-47
2023/07/27 05:45:11;;;;;;;2.50;1.80;;;16.00;71.10;;;17.32;52.51;97261.31;5015018;28;20501;-51
2023/07/27 05:47:39;;;;;;;2.78;1.80;;;16.00;71.40;;;17.35;52.46;97263.59;5014731;28;20034;-51
2023/07/27 05:50:08;;;;;;;4.30;2.40;;;16.10;71.10;;;17.42;52.40;97256.28;5015098;28;20056;-49
2023/07/27 05:52:35;;;;;;;2.67;2.00;;;16.10;70.70;;;17.50;52.31;97268.66;5015629;28;20069;-50
2023/07/27 05:55:03;;;;;;;3.72;2.20;;;16.20;70.80;;;17.51;52.23;97260.38;5014972;28;20057;-50
2023/07/27 05:57:31;;;;;;;4.25;2.40;;;16.20;70.90;;;17.56;52.18;97264.31;5014413;28;20076;-47
2023/07/27 05:59:59;;;;;;;2.45;2.13;;;16.20;70.50;;;17.60;52.16;97277.13;5013810;28;20433;-49
2023/07/27 06:02:34;;;;;;;2.97;2.33;;;16.30;70.50;;;17.55;52.28;97260.78;5015011;28;20045;-48
2023/07/27 06:05:02;;;;;;;4.20;2.33;;;16.30;70.00;;;17.63;52.12;97273.19;5014491;28;20045;-48
2023/07/27 06:07:29;;;;;;;4.22;2.15;;;16.40;70.30;;;17.66;52.04;97275.41;5014462;28;20041;-47
2023/07/27 06:09:57;;;;;;;2.95;2.30;;;16.40;70.10;;;17.66;52.08;97270.88;5014792;28;20053;-48
2023/07/27 06:12:25;;;;;;;3.83;2.40;;;16.40;69.90;;;17.60;52.32;97277.13;5005697;28;20429;-49
2023/07/27 06:14:52;;;;;;;3.10;2.33;;;16.40;70.10;;;17.74;51.98;97277.88;5014777;28;20046;-47
2023/07/27 06:17:20;;;;;;;2.60;2.08;;;16.40;70.30;;;17.75;51.87;97284.91;5014087;28;20041;-49
2023/07/27 06:19:48;;;;;;;3.55;2.10;;;16.50;69.80;;;17.75;51.90;97278.69;5014543;28;20234;-52
2023/07/27 06:22:16;;;;;;;3.88;2.35;;;16.50;69.90;;;17.82;51.92;97284.88;5015184;28;20053;-53
2023/07/27 06:24:43;;;;;;;3.72;2.20;;;16.50;69.60;;;17.87;51.68;97285.91;5013226;28;20049;-50
2023/07/27 06:27:11;;;;;;;3.38;2.13;;;16.50;69.70;;;17.94;51.84;97272.41;5010193;28;20046;-51
2023/07/27 06:29:38;;;;;;;3.55;2.65;;;16.60;69.90;;;17.97;51.83;97274.66;5014366;28;20413;-49
2023/07/27 06:32:06;;;;;;;4.10;2.30;;;16.70;70.10;;;18.07;51.92;97269.63;5014118;28;20494;-48
2023/07/27 06:34:34;;;;;;;3.85;3.22;;;16.80;70.00;;;18.14;51.73;97272.25;5014232;28;20046;-48
2023/07/27 06:37:02;;;;;;;3.40;2.13;;;16.90;69.80;;;18.07;52.15;97268.81;5012996;28;20045;-47
2023/07/27 06:39:29;;;;;;;2.65;2.13;;;16.80;70.40;;;18.15;52.34;97260.44;5013906;28;20045;-49
2023/07/27 06:41:57;;;;;;;2.63;2.40;;;16.90;70.90;;;18.08;52.54;97259.66;5014169;28;20065;-50
2023/07/27 06:44:30;;;;;;;3.80;2.10;;;16.80;70.90;;;18.12;52.59;97260.06;5022021;28;20394;-51
2023/07/27 06:46:58;;;;;;;3.30;2.15;;;16.80;71.60;;;18.07;52.71;97258.03;5013876;28;20038;-51
2023/07/27 06:49:25;;;;;;;3.45;2.55;;;16.80;71.90;;;18.17;52.81;97269.13;5012071;28;20524;-47
2023/07/27 06:51:53;;;;;;;3.65;2.33;;;16.80;72.10;;;18.23;53.06;97262.88;5013847;28;20042;-49
2023/07/27 06:54:21;;;;;;;2.50;2.08;;;16.90;72.30;;;18.27;53.12;97265.94;5013782;28;20125;-49
2023/07/27 06:56:48;;;;;;;3.95;2.75;;;17.00;72.60;;;18.34;53.08;97260.50;5013487;28;20045;-48
2023/07/27 06:59:16;;;;;;;5.22;2.85;;;17.10;73.00;;;18.40;53.24;97262.34;5013322;28;20045;-50
2023/07/27 07:01:43;;;;;;;4.40;2.65;;;17.00;73.30;;;18.42;53.26;97266.44;5013881;28;20045;-50
2023/07/27 07:04:11;;;;;;;3.53;2.20;;;17.10;73.30;;;18.41;53.35;97258.56;5013961;28;20042;-48
2023/07/27 07:06:40;;;;;;;3.47;2.50;;;17.10;73.70;;;18.46;53.13;97262.25;5013530;28;20534;-53
2023/07/27 07:09:10;;;;;;;3.20;2.40;;;17.10;73.30;;;18.49;53.17;97266.38;5013086;28;20042;-50
2023/07/27 07:11:38;;;;;;;4.47;2.78;;;17.20;73.10;;;18.52;52.94;97262.44;5013593;28;20485;-50
2023/07/27 07:14:05;;;;;;;2.80;2.20;;;17.20;72.60;;;18.55;52.89;97259.28;5013981;28;20061;-50
2023/07/27 07:16:33;;;;;;;3.75;2.55;;;17.30;72.60;;;18.58;52.96;97254.28;5012431;28;20405;-51
2023/07/27 07:19:01;;;;;;;5.35;2.38;;;17.30;72.70;;;18.64;52.98;97253.38;5011823;28;20513;-50
2023/07/27 07:21:28;;;;;;;3.88;2.38;;;17.30;72.60;;;18.67;52.78;97244.84;5013289;28;20042;-51
2023/07/27 07:23:56;;;;;;;6.07;2.55;;;17.40;72.10;;;18.65;52.81;97248.81;5013590;28;20048;-51
2023/07/27 07:26:24;;;;;;;3.20;2.20;;;17.30;72.30;;;18.55;53.11;97254.69;5012988;28;20038;-50
2023/07/27 07:28:51;;;;;;;3.17;2.20;;;17.30;72.40;;;18.62;52.86;97252.78;5012858;28;20052;-46
2023/07/27 07:31:19;;;;;;;3.42;2.30;;;17.30;72.30;;;18.67;52.91;97244.03;5010966;28;20429;-49
2023/07/27 07:33:47;;;;;;;3.03;1.98;;;17.30;72.20;;;18.69;52.84;97229.28;5012587;28;20437;-48
2023/07/27 07:36:14;;;;;;;4.30;2.78;;;17.40;72.10;;;18.74;52.63;97241.25;5011960;28;20045;-49
2023/07/27 07:38:42;;;;;;;5.50;2.50;;;17.40;71.60;;;18.73;52.57;97231.50;5012440;28;20056;-53
2023/07/27 07:41:09;;;;;;;3.25;1.88;;;17.40;71.40;;;18.72;52.75;97232.56;5012863;28;20528;-48
2023/07/27 07:43:39;;;;;;;3.03;2.10;;;17.30;72.00;;;18.70;52.72;97230.09;5008060;28;20049;-47
2023/07/27 07:46:11;;;;;;;4.30;2.20;;;17.30;72.10;;;18.76;52.65;97231.91;5001515;28;20045;-51
2023/07/27 07:48:39;;;;;;;4.28;2.65;;;17.30;72.50;;;18.78;52.88;97231.69;5006537;28;20037;-50
2023/07/27 07:51:14;;;;;;;4.10;2.53;;;17.40;72.80;;;18.78;53.28;97227.09;5005422;28;20053;-50
2023/07/27 07:53:42;;;;;;;3.35;2.10;;;17.40;73.80;;;18.72;53.85;97225.31;5008265;28;20049;-53
2023/07/27 07:56:17;;;;;;;3.70;2.40;;;17.30;74.90;;;18.73;53.84;97218.03;5007398;28;20046;-53
2023/07/27 07:58:45;;;;;;;3.03;2.33;;;17.30;75.70;;;18.66;54.36;97223.50;5006050;28;20045;-50
2023/07/27 08:01:13;;;;;;;4.18;2.28;;;17.30;75.80;;;18.64;54.21;97217.50;5006292;28;20038;-51
2023/07/27 08:03:41;;;;;;;3.80;2.63;;;17.20;75.90;;;18.66;54.56;97218.13;5023488;28;20050;-48
2023/07/27 08:06:12;;;;;;;4.10;2.40;;;17.20;76.70;;;18.69;54.32;97218.50;5015829;28;20054;-49
2023/07/27 08:08:40;;;;;;;4.72;2.63;;;17.20;76.60;;;18.72;54.28;97219.91;5008129;28;20401;-46
2023/07/27 08:11:07;;;;;;;3.65;2.47;;;17.30;76.20;;;18.72;54.46;97216.41;4998846;28;20060;-47
2023/07/27 08:13:36;;;;;;;3.05;2.40;;;17.30;76.30;;;18.75;54.29;97210.56;4998705;28;20524;-45
2023/07/27 08:16:04;;;;;;;2.75;2.30;;;17.30;76.40;;;18.74;54.61;97207.03;4996733;28;20552;-48
2023/07/27 08:18:32;;;;;;;3.63;2.30;;;17.30;77.00;;;18.81;54.57;97204.31;4999376;28;20049;-45
2023/07/27 08:21:06;;;;;;;3.33;2.45;;;17.40;76.70;;;18.89;54.74;97201.31;5007201;28;20417;-47
2023/07/27 08:23:33;;;;;;;;;;;17.50;77.10;;;18.88;54.56;97195.09;5007892;28;20041;-47
2023/07/27 08:26:06;;;;;;;3.17;2.20;;;17.40;76.80;;;18.98;54.45;97196.41;4997740;28;19950;-49
2023/07/27 08:28:33;;;;;;;5.90;2.70;;;17.50;76.60;;;18.96;54.23;97190.44;4996591;28;20100;-47
2023/07/27 08:31:05;;;;;;;4.15;2.10;;;17.50;76.40;;;18.94;53.65;97189.84;4993626;28;20046;-44
2023/07/27 08:33:33;;;;;;;5.90;2.63;;;17.40;75.50;;;18.97;54.03;97190.22;4996261;28;20421;-45
2023/07/27 08:36:01;;;;;;;4.10;2.42;;;17.50;75.40;;;19.02;53.77;97186.84;5000292;28;20035;-46
2023/07/27 08:38:31;;;;;;;5.15;2.50;;;17.50;75.60;;;19.05;53.52;97179.09;4996293;28;20050;-44
2023/07/27 08:41:02;;;;;;;5.93;3.00;;;17.60;74.70;;;19.10;53.58;97170.34;4993873;28;20080;-45
2023/07/27 08:43:29;;;;;;;3.00;2.22;;;17.70;74.10;;;19.14;53.42;97163.44;4994601;28;20047;-44
2023/07/27 08:45:58;;;;;;;3.05;2.28;;;17.70;73.90;;;19.18;53.37;97163.81;4998535;28;20042;-44
2023/07/27 08:48:28;;;;;;;4.20;2.60;;;17.80;73.50;;;19.20;53.33;97151.72;5000202;28;20045;-44
2023/07/27 08:50:59;;;;;;;3.75;2.50;;;17.90;73.40;;;19.25;53.15;97145.66;5000544;28;20042;-45
2023/07/27 08:53:27;;;;;;;3.45;2.33;;;17.90;73.00;;;19.24;53.27;97138.63;5003535;28;20042;-45
2023/07/27 08:55:54;;;;;;;5.13;2.53;;;17.90;72.70;;;19.22;53.18;97138.03;4996680;28;20054;-44
2023/07/27 08:58:22;;;;;;;4.55;2.70;;;18.00;72.50;;;19.26;52.90;97139.22;4995322;28;20050;-43
2023/07/27 09:00:49;;;;;;;3.53;2.05;;;18.00;72.10;;;19.28;52.82;97145.19;4998609;28;20057;-50
2023/07/27 09:03:17;;;;;;;5.18;2.65;;;18.00;71.90;;;19.30;53.12;97147.69;4994912;28;20486;-48
2023/07/27 09:05:58;;;;;;;5.55;2.53;;;18.00;72.20;;;19.29;53.19;97149.56;5003677;28;20052;-43
2023/07/27 09:08:30;;;;;;;4.18;2.40;;;18.00;72.10;;;19.34;53.27;97152.38;5006065;28;20509;-44
2023/07/27 09:11:10;;;;;;;3.60;2.22;;;18.00;72.10;;;19.36;53.07;97155.66;5000739;28;20045;-47
2023/07/27 09:13:39;;;;;;;5.70;2.80;;;18.00;72.10;;;19.37;53.20;97165.41;5002529;28;20054;-45
2023/07/27 09:16:08;;;;;;;3.08;2.67;;;18.00;72.80;;;19.42;53.29;97162.03;5006287;28;20548;-46
2023/07/27 09:18:36;;;;;;;3.97;2.55;;;18.00;73.50;;;19.42;53.69;97170.94;5004859;28;20050;-48
2023/07/27 09:21:09;;;;;;;3.67;2.40;;;18.00;74.00;;;19.42;53.61;97179.03;5006172;28;20405;-45
2023/07/27 09:23:38;;;;;;;5.90;2.90;;;18.00;73.80;;;19.42;53.29;97178.22;5006345;28;20050;-45
2023/07/27 09:26:06;;;;;;;5.40;3.65;;;18.00;74.00;;;19.39;53.27;97186.78;5004051;28;20038;-45
2023/07/27 09:28:34;;;;;;;4.38;2.78;;;17.90;74.30;;;19.39;52.76;97186.78;5000096;28;20057;-44
2023/07/27 09:31:03;;;;;;;2.70;2.15;;;17.90;72.90;;;19.35;52.63;97177.47;5006911;28;20529;-44
2023/07/27 09:33:31;;;;;;;3.30;2.70;;;17.90;72.20;;;19.35;52.82;97189.13;5005824;28;20387;-48
2023/07/27 09:36:01;;;;;;;2.88;2.42;;;17.90;72.30;;;19.35;52.70;97185.56;5005961;28;20046;-44
2023/07/27 09:38:30;;;;;;;4.32;2.80;;;17.90;72.70;;;19.35;52.83;97189.13;5002947;28;20061;-45
2023/07/27 09:41:07;;;;;;;5.88;2.50;;;17.80;73.00;;;19.35;52.85;97182.88;5004274;28;20038;-44
2023/07/27 09:43:38;;;;;;;3.28;2.28;;;17.90;72.70;;;19.37;52.75;97183.50;5003703;28;20045;-44
2023/07/27 09:46:06;;;;;;;3.25;2.53;;;17.90;72.50;;;19.40;52.87;97177.63;5005009;28;20046;-44
2023/07/27 09:48:34;;;;;;;4.93;2.40;;;17.90;73.10;;;19.39;52.92;97176.00;5017970;28;20045;-45
2023/07/27 09:51:02;;;;;;;5.68;2.72;;;17.90;73.00;;;19.42;52.89;97170.13;5010114;28;20046;-45
2023/07/27 09:53:32;;;;;;;4.22;2.42;;;18.00;73.30;;;19.43;53.47;97169.09;5011042;28;20049;-50
2023/07/27 09:56:00;;;;;;;5.72;2.42;;;17.90;73.80;;;19.47;53.31;97151.38;5011108;28;20670;-46
2023/07/27 09:58:29;;;;;;;5.05;2.28;;;18.00;74.00;;;19.52;53.04;97145.28;5009845;28;20332;-45
2023/07/27 10:00:58;;;;;;;4.25;2.42;;;18.00;73.60;;;19.54;53.52;97143.16;5010258;28;20053;-47
2023/07/27 10:03:26;;;;;;;4.68;2.42;;;18.10;74.00;;;19.66;53.23;97138.63;5009904;28;20046;-45
2023/07/27 10:05:55;;;;;;;3.00;2.20;;;18.20;73.50;;;19.79;53.02;97135.75;5011149;28;20046;-44
2023/07/27 10:08:24;;;;;;;4.07;2.30;;;18.50;72.90;;;19.91;53.21;97133.06;5009085;28;20508;-48
2023/07/27 10:10:58;;;;;;;3.55;2.20;;;18.70;72.50;;;20.00;52.65;97133.53;5010936;28;20045;-46
2023/07/27 10:13:26;;;;;;;5.88;2.60;;;18.80;71.50;;;20.05;52.54;97133.66;5013516;28;20042;-49
2023/07/27 10:15:55;;;;;;;4.10;2.13;;;18.90;70.90;;;20.13;52.47;97144.13;5014341;28;20045;-49
2023/07/27 10:18:26;;;;;;;3.38;2.22;;;18.90;70.20;;;20.20;51.72;97144.84;5013910;28;20444;-46
2023/07/27 10:21:21;;;;;;;3.50;2.05;;;19.00;69.90;;;20.18;51.37;97141.53;5014366;28;20046;-45
2023/07/27 10:24:03;;;;;;;4.00;2.63;;;19.00;69.10;;;20.30;51.37;97148.81;5008924;28;20050;-50
2023/07/27 10:26:46;;;;;;;2.78;2.03;;;19.10;68.80;;;20.26;51.25;97137.66;5013858;28;20040;-47
2023/07/27 10:29:23;;;;;;;2.60;2.40;;;19.10;67.20;;;20.39;50.96;97136.59;5013863;28;20054;-47